カシュガル の空港の天気 - METARとTAF

カシュガル空港 ( ZWSH / KHG ) - 中国 新疆ウイグル自治区カシュガル市
飛行場実況気象(Metar)
観測時間11/18 19:00 CST (11/18 11:00 UTC)
風向・風速東南東 2m/s
視程10km以上
天気現象
なし
気温7℃
湿度34%
気圧1026hPa
METARZWSH 181100Z 11002MPS CAVOK 07/M08 Q1026 NOSIG
過去の天気等 Google飛行場航空写真 Wunderground天気予報

過去48時間のMETAR

飛行場予報(TAF)
発表時間: 11/18 17:06 CST (11/18 09:06 UTC)
予報対象時間: 18日20時 CST ~ 19日20時 CST
風向・風速東南東 4m/s
視程10km以上
なし
18日22時 CST ~ 18日23時 CST に徐々に
風向・風速北西 4m/s
視程10km以上
少しの雲 雲底高度 1,220m
19日12時 CST ~ 19日13時 CST に徐々に
風向・風速東 4m/s
TAF ZWSH 180906Z 1812/1912 12004MPS CAVOK TX09/1909Z TNM01/00Z
BECMG 1814/1815 31004MPS 9999 FEW040
BECMG 1904/1905 09004MPS